Time;durP1;ratioP1;P1;durP2;ratioP2;P2;SDS_P1;SDS_P2;PMS_P1;PMS_P2;Temp;Humidity;BMP_temperature;BMP_pressure;BME280_temperature;BME280_humidity;BME280_pressure;Samples;Min_cycle;Max_cycle;Signal;HPM_P1;HPM_P2
2023/09/11 00:00:31;;;;;;;;;;;;;;;20.03;48.00;99894.34;5093061;28;19912;-77
2023/09/11 00:02:56;;;;;;;;;;;;;;;19.99;47.71;99889.44;5092833;28;20385;-77
2023/09/11 00:05:22;;;;;;;;;;;;;;;19.98;47.95;99889.66;5074829;28;19913;-77
2023/09/11 00:07:47;;;;;;;;;;;;;;;19.98;49.04;99890.47;5092712;28;20404;-77
2023/09/11 00:10:13;;;;;;;;;;;;;;;19.97;48.42;99886.16;5074649;28;19912;-78
2023/09/11 00:12:38;;;;;;;;;;;;;;;19.98;49.24;99881.63;5092681;28;19931;-77
2023/09/11 00:15:03;;;;;;;;;;;;;;;19.96;48.72;99881.03;5092585;28;19920;-78
2023/09/11 00:17:29;;;;;;;;;;;;;;;20.00;48.16;99882.22;5092736;28;19908;-77
2023/09/11 00:19:54;;;;;;;;;;;;;;;19.99;48.35;99884.06;5091881;28;19912;-77
2023/09/11 00:22:19;;;;;;;;;;;;;;;19.96;48.76;99881.03;5092468;28;19919;-77
2023/09/11 00:24:45;;;;;;;;;;;;;;;19.92;48.26;99877.19;5074271;28;19916;-77
2023/09/11 00:27:10;;;;;;;;;;;;;;;19.92;47.86;99879.88;5092412;28;19938;-77
2023/09/11 00:29:35;;;;;;;;;;;;;;;19.81;48.79;99883.34;5092486;28;20369;-77
2023/09/11 00:32:01;;;;;;;;;;;;;;;19.73;49.33;99886.34;5092390;28;20393;-77
2023/09/11 00:34:26;;;;;;;;;;;;;;;19.72;48.66;99882.84;5092365;28;19912;-77
2023/09/11 00:36:51;;;;;;;;;;;;;;;19.71;49.15;99880.41;5092278;28;19912;-77
2023/09/11 00:39:17;;;;;;;;;;;;;;;19.72;48.54;99876.69;5092228;28;19916;-77
2023/09/11 00:41:43;;;;;;;;;;;;;;;19.68;48.46;99881.69;5092146;28;19917;-76
2023/09/11 00:44:08;;;;;;;;;;;;;;;19.67;48.00;99880.03;5074166;28;19916;-76
2023/09/11 00:46:33;;;;;;;;;;;;;;;19.58;48.62;99882.25;5092234;28;19966;-77
2023/09/11 00:49:00;;;;;;;;;;;;;;;19.53;49.39;99876.75;5092082;28;20377;-76
2023/09/11 00:51:25;;;;;;;;;;;;;;;19.40;48.83;99871.56;5092144;28;19962;-77
2023/09/11 00:53:51;;;;;;;;;;;;;;;19.31;50.26;99878.22;5092322;28;20343;-78
2023/09/11 00:56:16;;;;;;;;;;;;;;;19.28;49.31;99876.00;5092018;28;19916;-77
2023/09/11 00:58:42;;;;;;;;;;;;;;;19.30;48.81;99872.06;5091996;28;19913;-77
2023/09/11 01:01:08;;;;;;;;;;;;;;;19.30;49.78;99872.06;5091688;28;19904;-76
2023/09/11 01:03:34;;;;;;;;;;;;;;;19.29;49.36;99872.28;5073583;28;19923;-77
2023/09/11 01:06:00;;;;;;;;;;;;;;;19.24;49.68;99859.59;5091985;28;19912;-76
2023/09/11 01:08:25;;;;;;;;;;;;;;;19.29;49.65;99869.63;5091824;28;19923;-77
2023/09/11 01:10:50;;;;;;;;;;;;;;;19.21;49.32;99873.44;5091641;28;19995;-76
2023/09/11 01:13:16;;;;;;;;;;;;;;;19.21;49.49;99872.59;5091819;28;19965;-76
2023/09/11 01:15:45;;;;;;;;;;;;;;;19.24;48.46;99874.84;5092007;28;19912;-76
2023/09/11 01:18:14;;;;;;;;;;;;;;;19.18;49.73;99873.88;5091967;28;19969;-76
2023/09/11 01:21:02;;;;;;;;;;;;;;;19.20;49.43;99871.78;5073577;28;20289;-77
2023/09/11 01:23:44;;;;;;;;;;;;;;;19.21;49.18;99877.97;5080771;28;19912;-77
2023/09/11 01:26:27;;;;;;;;;;;;;;;19.25;50.13;99873.78;5091568;28;19930;-77
2023/09/11 01:28:52;;;;;;;;;;;;;;;19.20;49.52;99870.97;5091505;28;19924;-76
2023/09/11 01:31:18;;;;;;;;;;;;;;;19.20;49.21;99871.78;5094547;28;19912;-77
2023/09/11 01:33:44;;;;;;;;;;;;;;;19.23;49.89;99868.66;5095959;28;20007;-76
2023/09/11 01:36:09;;;;;;;;;;;;;;;19.23;50.23;99873.19;5095823;28;19912;-76
2023/09/11 01:38:34;;;;;;;;;;;;;;;19.18;49.77;99865.84;5095775;28;19912;-76
2023/09/11 01:41:01;;;;;;;;;;;;;;;19.15;50.37;99870.84;5077412;28;19912;-76
2023/09/11 01:43:27;;;;;;;;;;;;;;;19.05;50.39;99869.50;5095513;28;19935;-76
2023/09/11 01:45:52;;;;;;;;;;;;;;;19.02;50.93;99867.28;5107102;28;19922;-77
2023/09/11 01:48:20;;;;;;;;;;;;;;;19.01;49.83;99862.16;5106133;28;20393;-76
2023/09/11 01:50:45;;;;;;;;;;;;;;;19.02;49.70;99861.94;5095821;28;20396;-76
2023/09/11 01:53:11;;;;;;;;;;;;;;;19.04;50.05;99872.41;5095622;28;19912;-76
2023/09/11 01:55:37;;;;;;;;;;;;;;;19.02;50.30;99869.16;5095378;28;19935;-77
2023/09/11 01:58:02;;;;;;;;;;;;;;;18.93;49.66;99859.78;5095113;28;19912;-76
2023/09/11 02:00:27;;;;;;;;;;;;;;;18.91;49.41;99865.38;5095165;28;19912;-76
2023/09/11 02:02:55;;;;;;;;;;;;;;;18.91;49.76;99867.22;5095070;28;19926;-76
2023/09/11 02:05:20;;;;;;;;;;;;;;;18.90;49.77;99865.59;5095293;28;19912;-76
2023/09/11 02:07:45;;;;;;;;;;;;;;;18.85;50.87;99860.91;5104525;28;19916;-78
2023/09/11 02:10:11;;;;;;;;;;;;;;;18.78;50.08;99862.84;5109527;28;19912;-77
2023/09/11 02:12:36;;;;;;;;;;;;;;;18.81;50.39;99864.25;5077549;28;19918;-77
2023/09/11 02:15:01;;;;;;;;;;;;;;;18.79;49.82;99859.13;5077260;28;19912;-76
2023/09/11 02:17:26;;;;;;;;;;;;;;;18.78;50.21;99859.34;5077042;28;19920;-76
2023/09/11 02:20:10;;;;;;;;;;;;;;;18.73;49.78;99858.16;5095039;28;20312;-77
2023/09/11 02:22:36;;;;;;;;;;;;;;;18.70;50.03;99863.16;5076962;28;20393;-77
2023/09/11 02:25:01;;;;;;;;;;;;;;;18.64;49.85;99864.03;5094847;28;19939;-76
2023/09/11 02:27:26;;;;;;;;;;;;;;;18.65;50.79;99855.78;5094632;28;19920;-76
2023/09/11 02:29:51;;;;;;;;;;;;;;;18.67;51.35;99863.59;5094667;28;19926;-78
2023/09/11 02:32:17;;;;;;;;;;;;;;;18.63;50.17;99863.22;5094974;28;19916;-77
2023/09/11 02:34:42;;;;;;;;;;;;;;;18.57;51.04;99864.03;5076441;28;19916;-78
2023/09/11 02:37:07;;;;;;;;;;;;;;;18.53;51.00;99857.50;5094380;28;19908;-77
2023/09/11 02:39:33;;;;;;;;;;;;;;;18.53;51.44;99870.06;5094512;28;19916;-77
2023/09/11 02:41:58;;;;;;;;;;;;;;;18.43;51.30;99859.88;5093907;28;20385;-76
2023/09/11 02:44:24;;;;;;;;;;;;;;;18.39;50.88;99856.00;5094598;28;19916;-77
2023/09/11 02:46:49;;;;;;;;;;;;;;;18.37;51.53;99861.56;5076283;28;19981;-76
2023/09/11 02:49:14;;;;;;;;;;;;;;;18.39;50.90;99861.34;5094701;28;20347;-78
2023/09/11 02:51:40;;;;;;;;;;;;;;;18.31;51.90;99857.13;5094468;28;19918;-76
2023/09/11 02:54:05;;;;;;;;;;;;;;;18.29;51.88;99867.22;5094304;28;19955;-77
2023/09/11 02:56:30;;;;;;;;;;;;;;;18.27;51.29;99863.94;5094259;28;19969;-76
2023/09/11 02:58:56;;;;;;;;;;;;;;;18.30;51.75;99863.50;5094137;28;19912;-76
2023/09/11 03:01:21;;;;;;;;;;;;;;;18.25;51.47;99862.53;5075951;28;19920;-76
2023/09/11 03:03:46;;;;;;;;;;;;;;;18.23;52.53;99860.06;5094189;28;20308;-77
2023/09/11 03:06:12;;;;;;;;;;;;;;;18.20;51.66;99855.16;5093751;28;19964;-77
2023/09/11 03:08:37;;;;;;;;;;;;;;;18.13;52.95;99859.75;5075745;28;19923;-76
2023/09/11 03:11:06;;;;;;;;;;;;;;;18.05;52.55;99865.38;5075647;28;19912;-77
2023/09/11 03:13:31;;;;;;;;;;;;;;;18.02;52.53;99855.13;5093916;28;19912;-78
2023/09/11 03:16:05;;;;;;;;;;;;;;;18.05;50.90;99854.69;5093687;28;20069;-76
2023/09/11 03:18:31;;;;;;;;;;;;;;;18.09;51.60;99855.88;5093730;28;19969;-76
2023/09/11 03:20:56;;;;;;;;;;;;;;;18.14;50.86;99858.72;5093942;28;19916;-77
2023/09/11 03:23:21;;;;;;;;;;;;;;;18.16;51.75;99851.31;5093652;28;19912;-76
2023/09/11 03:25:47;;;;;;;;;;;;;;;18.15;51.88;99859.53;5093486;28;20352;-77
2023/09/11 03:28:13;;;;;;;;;;;;;;;18.13;51.73;99854.41;5093217;28;19985;-77
2023/09/11 03:30:38;;;;;;;;;;;;;;;18.13;51.22;99861.63;5093388;28;20385;-76
2023/09/11 03:33:03;;;;;;;;;;;;;;;18.11;51.15;99861.81;5093294;28;19912;-76
2023/09/11 03:35:28;;;;;;;;;;;;;;;18.08;51.64;99867.63;5093474;28;19965;-76
2023/09/11 03:37:54;;;;;;;;;;;;;;;17.96;53.23;99872.03;5093455;28;19916;-77
2023/09/11 03:40:20;;;;;;;;;;;;;;;17.88;52.28;99869.63;5093291;28;19965;-75
2023/09/11 03:42:45;;;;;;;;;;;;;;;17.91;51.13;99869.19;5093245;28;19952;-77
2023/09/11 03:45:10;;;;;;;;;;;;;;;17.93;51.94;99875.97;5093171;28;20427;-76
2023/09/11 03:47:36;;;;;;;;;;;;;;;17.93;53.02;99870.63;5093536;28;20305;-77
2023/09/11 03:50:01;;;;;;;;;;;;;;;17.88;52.31;99873.13;5093567;28;19912;-77
2023/09/11 03:52:27;;;;;;;;;;;;;;;17.87;52.46;99866.16;5092925;28;20648;-77
2023/09/11 03:54:52;;;;;;;;;;;;;;;17.87;53.54;99868.81;5091917;28;20015;-77
2023/09/11 03:57:17;;;;;;;;;;;;;;;17.90;51.84;99872.91;5074777;28;20408;-76
2023/09/11 03:59:42;;;;;;;;;;;;;;;17.96;51.47;99870.19;5092959;28;19978;-78
2023/09/11 04:02:08;;;;;;;;;;;;;;;18.03;51.56;99875.47;5092794;28;19920;-78
2023/09/11 04:04:33;;;;;;;;;;;;;;;18.08;51.43;99878.31;5092924;28;19912;-76
2023/09/11 04:06:58;;;;;;;;;;;;;;;18.08;51.41;99880.97;5092792;28;19984;-77
2023/09/11 04:09:23;;;;;;;;;;;;;;;18.01;53.02;99881.03;5093234;28;19916;-77
2023/09/11 04:11:49;;;;;;;;;;;;;;;18.02;52.88;99880.00;5092799;28;19916;-77
2023/09/11 04:14:14;;;;;;;;;;;;;;;18.01;51.78;99885.56;5075054;28;20326;-77
2023/09/11 04:16:40;;;;;;;;;;;;;;;17.96;52.48;99880.03;5074350;28;19959;-77
2023/09/11 04:19:05;;;;;;;;;;;;;;;17.91;51.96;99882.56;5092586;28;19912;-77
2023/09/11 04:21:30;;;;;;;;;;;;;;;17.98;52.02;99886.00;5074262;28;20444;-77
2023/09/11 04:23:56;;;;;;;;;;;;;;;17.96;52.59;99886.22;5074343;28;19912;-77
2023/09/11 04:26:21;;;;;;;;;;;;;;;18.04;52.66;99883.25;5092523;28;19912;-77
2023/09/11 04:28:47;;;;;;;;;;;;;;;18.09;51.74;99878.09;5074300;28;19917;-77
2023/09/11 04:31:12;;;;;;;;;;;;;;;18.09;52.48;99882.59;5092376;28;19912;-77
2023/09/11 04:33:37;;;;;;;;;;;;;;;18.08;52.59;99881.78;5092535;28;19916;-77
2023/09/11 04:36:02;;;;;;;;;;;;;;;18.12;52.13;99887.50;5092522;28;19912;-77
2023/09/11 04:38:28;;;;;;;;;;;;;;;18.16;52.43;99890.56;5092736;28;19912;-77
2023/09/11 04:40:56;;;;;;;;;;;;;;;18.15;53.08;99886.25;5098419;28;19920;-77
2023/09/11 04:43:22;;;;;;;;;;;;;;;18.17;52.27;99890.34;5104821;28;19909;-78
2023/09/11 04:45:47;;;;;;;;;;;;;;;18.23;51.79;99886.81;5093498;28;19919;-77
2023/09/11 04:48:13;;;;;;;;;;;;;;;18.28;52.68;99880.78;5092620;28;19924;-77
2023/09/11 04:50:38;;;;;;;;;;;;;;;18.25;52.64;99875.88;5092935;28;19919;-76
2023/09/11 04:53:03;;;;;;;;;;;;;;;18.31;52.38;99883.03;5074012;28;19916;-76
2023/09/11 04:55:29;;;;;;;;;;;;;;;18.39;51.81;99888.09;5091943;28;19912;-77
2023/09/11 04:57:54;;;;;;;;;;;;;;;18.43;53.40;99890.09;5092154;28;19912;-77
2023/09/11 05:00:19;;;;;;;;;;;;;;;18.49;51.74;99882.25;5092270;28;19919;-77
2023/09/11 05:02:46;;;;;;;;;;;;;;;18.49;52.84;99885.72;5096372;28;19924;-77
2023/09/11 05:05:12;;;;;;;;;;;;;;;18.52;50.98;99887.16;5081402;28;19920;-77
2023/09/11 05:07:37;;;;;;;;;;;;;;;18.54;52.49;99891.22;5075080;28;19922;-77
2023/09/11 05:10:05;;;;;;;;;;;;;;;18.56;51.77;99889.16;5073785;28;20373;-77
2023/09/11 05:12:30;;;;;;;;;;;;;;;18.57;52.62;99892.66;5092227;28;19916;-77
2023/09/11 05:14:56;;;;;;;;;;;;;;;18.59;52.44;99885.25;5073631;28;19913;-77
2023/09/11 05:17:21;;;;;;;;;;;;;;;18.64;51.72;99893.47;5091935;28;19912;-78
2023/09/11 05:19:46;;;;;;;;;;;;;;;18.69;51.51;99890.94;5091856;28;20355;-78
2023/09/11 05:22:11;;;;;;;;;;;;;;;18.68;52.49;99881.28;5073660;28;20006;-77
2023/09/11 05:24:37;;;;;;;;;;;;;;;18.68;53.42;99883.94;5073563;28;20358;-77
2023/09/11 05:27:03;;;;;;;;;;;;;;;18.64;53.12;99885.44;5091772;28;19912;-77
2023/09/11 05:29:28;;;;;;;;;;;;;;;18.64;53.99;99885.44;5091857;28;19918;-77
2023/09/11 05:31:53;;;;;;;;;;;;;;;18.68;52.21;99882.09;5073195;28;19916;-76
2023/09/11 05:34:18;;;;;;;;;;;;;;;18.69;53.25;99883.72;5091639;28;19961;-77
2023/09/11 05:36:44;;;;;;;;;;;;;;;18.77;53.29;99889.81;5073652;28;19915;-77
2023/09/11 05:39:10;;;;;;;;;;;;;;;18.86;53.54;99878.59;5091608;28;19916;-77
2023/09/11 05:41:35;;;;;;;;;;;;;;;18.96;52.60;99881.56;5091423;28;19912;-78
2023/09/11 05:44:01;;;;;;;;;;;;;;;19.02;51.86;99879.84;5091818;28;19915;-77
2023/09/11 05:46:26;;;;;;;;;;;;;;;19.13;52.33;99878.28;5090237;28;19919;-78
2023/09/11 05:48:51;;;;;;;;;;;;;;;19.13;53.29;99876.41;5090800;28;20328;-78
2023/09/11 05:51:17;;;;;;;;;;;;;;;19.21;53.01;99880.63;5087081;28;19916;-77
2023/09/11 05:53:42;;;;;;;;;;;;;;;19.34;52.28;99881.31;5091180;28;19908;-77
2023/09/11 05:56:07;;;;;;;;;;;;;;;19.46;52.77;99884.03;5091496;28;19912;-78
2023/09/11 05:58:32;;;;;;;;;;;;;;;19.59;52.05;99880.38;5091688;28;19908;-77
2023/09/11 06:00:58;;;;;;;;;;;;;;;19.73;52.20;99889.03;5091482;28;19922;-77
2023/09/11 06:03:23;;;;;;;;;;;;;;;19.82;51.40;99885.78;5091423;28;19916;-77
2023/09/11 06:05:48;;;;;;;;;;;;;;;19.92;51.09;99887.91;5090939;28;19939;-77
2023/09/11 06:08:13;;;;;;;;;;;;;;;20.01;50.12;99889.19;5059064;28;19924;-77
2023/09/11 06:10:39;;;;;;;;;;;;;;;20.06;50.52;99894.69;5090981;28;19995;-77
2023/09/11 06:13:04;;;;;;;;;;;;;;;20.09;50.72;99893.44;5091071;28;19912;-78
2023/09/11 06:15:29;;;;;;;;;;;;;;;20.08;50.79;99897.16;5091173;28;19913;-77
2023/09/11 06:17:55;;;;;;;;;;;;;;;20.11;50.34;99897.50;5093346;28;19976;-77
2023/09/11 06:20:21;;;;;;;;;;;;;;;20.12;49.73;99899.16;5092888;28;19990;-77
2023/09/11 06:22:46;;;;;;;;;;;;;;;20.20;50.15;99898.00;5093223;28;19939;-77
2023/09/11 06:25:11;;;;;;;;;;;;;;;20.26;50.47;99905.91;5094894;28;19912;-77
2023/09/11 06:27:37;;;;;;;;;;;;;;;20.33;49.94;99905.81;5070109;28;19921;-78
2023/09/11 06:30:05;;;;;;;;;;;;;;;20.41;49.78;99907.34;5093653;28;19916;-77
2023/09/11 06:32:32;;;;;;;;;;;;;;;20.43;49.71;99903.38;5076278;28;19912;-78
2023/09/11 06:34:57;;;;;;;;;;;;;;;20.47;49.56;99906.41;5093103;28;20384;-77
2023/09/11 06:37:22;;;;;;;;;;;;;;;20.42;49.66;99909.81;5077702;28;19970;-77
2023/09/11 06:39:50;;;;;;;;;;;;;;;20.39;49.59;99918.31;5086062;28;19952;-77
2023/09/11 06:42:22;;;;;;;;;;;;;;;20.43;50.20;99906.06;5092369;28;19920;-77
2023/09/11 06:44:47;;;;;;;;;;;;;;;20.50;49.58;99917.50;5093401;28;19973;-75
2023/09/11 06:47:13;;;;;;;;;;;;;;;20.52;49.47;99917.28;5093107;28;19912;-77
2023/09/11 06:49:38;;;;;;;;;;;;;;;20.56;49.08;99918.44;5092325;28;19920;-77
2023/09/11 06:52:03;;;;;;;;;;;;;;;20.63;49.49;99916.44;5092535;28;19923;-77
2023/09/11 06:54:29;;;;;;;;;;;;;;;20.73;49.59;99921.22;5078009;28;20393;-77
2023/09/11 06:56:54;;;;;;;;;;;;;;;20.79;49.19;99923.78;5079123;28;20439;-76
2023/09/11 06:59:19;;;;;;;;;;;;;;;20.87;48.90;99922.63;5078843;28;19916;-76
2023/09/11 07:01:45;;;;;;;;;;;;;;;20.96;49.15;99917.72;5075586;28;19920;-76
2023/09/11 07:04:11;;;;;;;;;;;;;;;20.99;48.93;99923.44;5055748;28;20466;-76
2023/09/11 07:06:40;;;;;;;;;;;;;;;20.95;48.88;99914.22;5063984;28;19912;-76
2023/09/11 07:09:06;;;;;;;;;;;;;;;21.00;48.54;99913.50;5090784;28;19963;-78
2023/09/11 07:11:31;;;;;;;;;;;;;;;21.05;48.10;99917.09;5082044;28;19924;-76
2023/09/11 07:13:56;;;;;;;;;;;;;;;21.11;48.52;99926.09;5089067;28;19912;-75
2023/09/11 07:16:22;;;;;;;;;;;;;;;21.14;48.05;99922.91;5093454;28;20007;-76
2023/09/11 07:18:47;;;;;;;;;;;;;;;21.19;47.91;99926.53;5093709;28;19918;-76
2023/09/11 07:21:13;;;;;;;;;;;;;;;21.25;47.93;99922.91;5093093;28;19916;-77
2023/09/11 07:23:38;;;;;;;;;;;;;;;21.39;46.93;99919.94;5069636;28;19912;-76
2023/09/11 07:26:03;;;;;;;;;;;;;;;21.49;47.22;99917.47;5091659;28;19919;-76
2023/09/11 07:28:29;;;;;;;;;;;;;;;21.60;47.44;99922.00;5078246;28;19927;-76
2023/09/11 07:30:54;;;;;;;;;;;;;;;21.66;46.42;99921.03;5093256;28;19916;-76
2023/09/11 07:33:20;;;;;;;;;;;;;;;21.66;46.26;99925.59;5092352;28;19912;-76
2023/09/11 07:35:45;;;;;;;;;;;;;;;21.62;46.43;99919.88;5091424;28;19916;-76
2023/09/11 07:38:10;;;;;;;;;;;;;;;21.59;46.37;99915.00;5096653;28;19919;-76
2023/09/11 07:40:37;;;;;;;;;;;;;;;21.64;46.01;99920.47;5077597;28;19916;-76
2023/09/11 07:43:02;;;;;;;;;;;;;;;21.68;45.71;99926.16;5091928;28;19917;-76
2023/09/11 07:45:27;;;;;;;;;;;;;;;21.72;45.73;99920.06;5074399;28;19916;-76
2023/09/11 07:47:54;;;;;;;;;;;;;;;21.77;45.64;99922.84;5068359;28;19916;-75
2023/09/11 07:50:19;;;;;;;;;;;;;;;21.75;45.65;99924.13;5069619;28;19916;-76
2023/09/11 07:52:44;;;;;;;;;;;;;;;21.80;45.71;99916.16;5091408;28;19916;-76
2023/09/11 07:55:10;;;;;;;;;;;;;;;21.88;45.54;99913.91;5090378;28;20004;-76
2023/09/11 07:57:35;;;;;;;;;;;;;;;21.98;45.31;99915.13;5090662;28;19938;-75
2023/09/11 08:00:04;;;;;;;;;;;;;;;22.09;43.87;99906.19;5091949;28;19916;-76
2023/09/11 08:02:30;;;;;;;;;;;;;;;22.15;44.12;99910.59;5090663;28;19920;-75
2023/09/11 08:04:55;;;;;;;;;;;;;;;22.26;44.37;99906.19;5091827;28;19942;-77
2023/09/11 08:07:20;;;;;;;;;;;;;;;22.39;44.39;99903.19;5091981;28;19920;-76
2023/09/11 08:09:46;;;;;;;;;;;;;;;22.53;44.09;99907.16;5092185;28;19973;-76
2023/09/11 08:12:11;;;;;;;;;;;;;;;22.59;42.97;99908.06;5092755;28;20372;-75
2023/09/11 08:14:37;;;;;;;;;;;;;;;22.57;43.17;99897.53;5092606;28;19904;-77
2023/09/11 08:17:02;;;;;;;;;;;;;;;22.59;42.52;99895.41;5081531;28;19977;-78
2023/09/11 08:19:27;;;;;;;;;;;;;;;22.60;42.48;99899.72;5092268;28;20003;-75
2023/09/11 08:21:54;;;;;;;;;;;;;;;22.69;43.14;99898.25;5090960;28;19924;-75
2023/09/11 08:24:19;;;;;;;;;;;;;;;22.79;42.81;99890.28;5089452;28;19924;-75
2023/09/11 08:26:45;;;;;;;;;;;;;;;22.91;42.14;99894.78;5080286;28;20409;-77
2023/09/11 08:29:15;;;;;;;;;;;;;;;23.04;41.06;99892.56;5087789;28;19943;-77
2023/09/11 08:31:40;;;;;;;;;;;;;;;23.12;40.48;99891.28;5084948;28;19959;-78
2023/09/11 08:34:05;;;;;;;;;;;;;;;23.22;41.42;99886.03;5091178;28;19946;-75
2023/09/11 08:36:31;;;;;;;;;;;;;;;23.44;40.98;99888.69;5091190;28;19916;-75
2023/09/11 08:38:56;;;;;;;;;;;;;;;23.69;39.19;99882.75;5089235;28;19951;-78
2023/09/11 08:41:23;;;;;;;;;;;;;;;23.86;36.89;99886.19;5088290;28;19955;-77
2023/09/11 08:43:50;;;;;;;;;;;;;;;24.00;37.51;99881.16;5073861;28;20458;-76
2023/09/11 08:46:17;;;;;;;;;;;;;;;24.17;37.60;99872.94;5091810;28;19939;-77
2023/09/11 08:48:44;;;;;;;;;;;;;;;24.28;37.81;99870.06;5091941;28;20234;-76
2023/09/11 08:51:11;;;;;;;;;;;;;;;24.39;37.25;99874.44;5090258;28;20401;-77
2023/09/11 08:53:38;;;;;;;;;;;;;;;24.50;36.22;99869.13;5091839;28;19954;-76
2023/09/11 08:56:04;;;;;;;;;;;;;;;24.61;36.73;99868.94;5091988;28;20393;-77
2023/09/11 08:58:31;;;;;;;;;;;;;;;24.81;37.25;99864.72;5090701;28;20378;-77
2023/09/11 09:00:57;;;;;;;;;;;;;;;24.98;36.28;99866.16;5090617;28;20331;-77
2023/09/11 09:03:23;;;;;;;;;;;;;;;25.18;35.75;99862.72;5073953;28;19913;-79
2023/09/11 09:05:49;;;;;;;;;;;;;;;25.41;35.04;99860.63;5091996;28;19919;-76
2023/09/11 09:08:16;;;;;;;;;;;;;;;25.56;35.11;99855.25;5087408;28;19920;-77
2023/09/11 09:10:42;;;;;;;;;;;;;;;25.73;33.85;99855.81;5085130;28;19923;-77
2023/09/11 09:13:08;;;;;;;;;;;;;;;25.90;35.46;99848.25;5090713;28;19916;-77
2023/09/11 09:15:35;;;;;;;;;;;;;;;26.11;33.51;99840.94;5087264;28;20211;-78
2023/09/11 09:18:00;;;;;;;;;;;;;;;26.22;31.97;99841.75;5091054;28;19916;-77
2023/09/11 09:20:29;;;;;;;;;;;;;;;26.35;32.23;99837.69;5089659;28;19920;-78
2023/09/11 09:22:56;;;;;;;;;;;;;;;26.56;32.97;99842.75;5087466;28;20005;-76
2023/09/11 09:25:21;;;;;;;;;;;;;;;26.71;30.07;99832.97;5085849;28;19923;-77
2023/09/11 09:27:46;;;;;;;;;;;;;;;26.74;31.06;99832.41;5090291;28;19917;-76
2023/09/11 09:30:22;;;;;;;;;;;;;;;26.78;31.53;99834.31;5084654;28;19916;-76
2023/09/11 09:32:48;;;;;;;;;;;;;;;26.88;28.75;99834.25;5078385;28;19916;-77
2023/09/11 09:35:14;;;;;;;;;;;;;;;27.05;31.24;99825.00;5090867;28;20004;-76
2023/09/11 09:37:39;;;;;;;;;;;;;;;27.19;30.54;99817.88;5089806;28;20019;-76
2023/09/11 09:40:05;;;;;;;;;;;;;;;27.33;29.97;99824.28;5088311;28;19916;-76
2023/09/11 09:42:40;;;;;;;;;;;;;;;27.47;28.63;99838.00;5090593;28;19974;-76
2023/09/11 09:45:05;;;;;;;;;;;;;;;27.62;30.62;99829.00;5085489;28;19924;-78
2023/09/11 09:47:31;;;;;;;;;;;;;;;27.78;28.42;99819.66;5091117;28;19927;-77
2023/09/11 09:49:57;;;;;;;;;;;;;;;27.91;26.88;99824.41;5091676;28;20393;-77
2023/09/11 09:52:26;;;;;;;;;;;;;;;28.10;28.81;99816.38;5091874;28;19947;-75
2023/09/11 09:54:54;;;;;;;;;;;;;;;28.27;31.01;99810.53;5092808;28;19955;-76
2023/09/11 09:57:20;;;;;;;;;;;;;;;28.44;30.59;99802.75;5094120;28;19947;-75
2023/09/11 09:59:48;;;;;;;;;;;;;;;28.59;30.48;99799.84;5091563;28;19966;-77
2023/09/11 10:02:13;;;;;;;;;;;;;;;28.60;28.60;99797.94;5094555;28;19924;-75
2023/09/11 10:04:39;;;;;;;;;;;;;;;28.66;27.94;99797.56;5094114;28;19926;-76
2023/09/11 10:07:05;;;;;;;;;;;;;;;28.77;27.86;99798.25;5077195;28;20358;-77
2023/09/11 10:09:31;;;;;;;;;;;;;;;28.90;27.96;99797.56;5095381;28;20369;-76
2023/09/11 10:12:00;;;;;;;;;;;;;;;28.99;27.54;99793.13;5095007;28;19918;-75
2023/09/11 10:14:25;;;;;;;;;;;;;;;29.11;27.10;99798.09;5093035;28;19964;-75
2023/09/11 10:16:51;;;;;;;;;;;;;;;29.34;28.67;99796.41;5094794;28;19999;-76
2023/09/11 10:19:16;;;;;;;;;;;;;;;29.44;25.94;99796.28;5076478;28;19912;-75
2023/09/11 10:21:41;;;;;;;;;;;;;;;29.56;24.75;99788.47;5094744;28;19994;-75
2023/09/11 10:24:10;;;;;;;;;;;;;;;29.68;27.96;99783.34;5075205;28;19916;-76
2023/09/11 10:26:47;;;;;;;;;;;;;;;29.82;27.36;99785.31;5094994;28;20046;-74
2023/09/11 10:29:32;;;;;;;;;;;;;;;30.12;25.08;99781.25;5094833;28;19923;-76
2023/09/11 10:32:09;;;;;;;;;;;;;;;30.29;26.29;99776.84;5094893;28;19912;-76
2023/09/11 10:34:36;;;;;;;;;;;;;;;30.39;23.12;99772.28;5056898;28;19990;-75
2023/09/11 10:37:03;;;;;;;;;;;;;;;30.44;24.76;99775.72;5086710;28;19969;-77
2023/09/11 10:39:28;;;;;;;;;;;;;;;30.63;23.67;99765.56;5084749;28;20005;-76
2023/09/11 10:41:54;;;;;;;;;;;;;;;30.81;24.41;99768.44;5093830;28;19931;-76
2023/09/11 10:44:19;;;;;;;;;;;;;;;30.87;21.69;99756.31;5093230;28;19912;-76
2023/09/11 10:46:49;;;;;;;;;;;;;;;31.02;24.67;99766.88;5073984;28;19923;-75
2023/09/11 10:49:15;;;;;;;;;;;;;;;31.14;24.42;99763.59;5086186;28;19952;-76
2023/09/11 10:51:40;;;;;;;;;;;;;;;31.17;22.66;99763.00;5092031;28;20320;-75
2023/09/11 10:54:06;;;;;;;;;;;;;;;31.32;22.44;99754.50;5089858;28;19916;-76
2023/09/11 10:56:35;;;;;;;;;;;;;;;31.53;22.80;99752.06;5092410;28;19916;-75
2023/09/11 10:59:00;;;;;;;;;;;;;;;31.55;21.42;99750.63;5079908;28;19944;-75
2023/09/11 11:01:25;;;;;;;;;;;;;;;31.72;23.34;99751.88;5084705;28;19963;-75
2023/09/11 11:03:52;;;;;;;;;;;;;;;31.74;20.72;99747.72;5076589;28;19977;-75
2023/09/11 11:06:21;;;;;;;;;;;;;;;31.64;22.72;99747.16;5091784;28;19923;-76
2023/09/11 11:08:47;;;;;;;;;;;;;;;31.70;21.36;99751.38;5093438;28;19916;-78
2023/09/11 11:11:21;;;;;;;;;;;;;;;31.51;19.79;99737.91;5089158;28;19923;-77
2023/09/11 11:14:05;;;;;;;;;;;;;;;31.38;20.08;99744.25;5076882;28;19917;-76
2023/09/11 11:16:30;;;;;;;;;;;;;;;31.43;20.37;99731.28;5061116;28;19916;-77
2023/09/11 11:18:57;;;;;;;;;;;;;;;31.60;20.58;99727.84;5093338;28;19916;-77
2023/09/11 11:21:22;;;;;;;;;;;;;;;31.70;21.58;99729.53;5092543;28;19916;-78
2023/09/11 11:23:55;;;;;;;;;;;;;;;31.69;23.35;99736.09;5093529;28;19912;-77
2023/09/11 11:26:22;;;;;;;;;;;;;;;31.76;22.43;99723.63;5073479;28;19994;-77
2023/09/11 11:28:47;;;;;;;;;;;;;;;31.83;22.03;99720.44;5073552;28;19947;-77
2023/09/11 11:31:16;;;;;;;;;;;;;;;31.98;21.05;99719.25;5091269;28;19977;-77
2023/09/11 11:33:44;;;;;;;;;;;;;;;32.19;20.11;99710.16;5093672;28;20094;-77
2023/09/11 11:36:11;;;;;;;;;;;;;;;32.34;19.90;99717.13;5080053;28;19908;-77
2023/09/11 11:38:37;;;;;;;;;;;;;;;32.23;21.05;99713.88;5091813;28;19923;-77
2023/09/11 11:41:03;;;;;;;;;;;;;;;32.41;20.92;99712.00;5091647;28;19978;-77
2023/09/11 11:46:15;;;;;;;;;;;;;;;32.32;20.40;99707.66;5092888;28;20349;-78
2023/09/11 11:48:40;;;;;;;;;;;;;;;32.37;21.38;99702.84;5087318;28;19920;-77
2023/09/11 11:51:06;;;;;;;;;;;;;;;32.23;21.77;99696.66;5089352;28;20362;-78
2023/09/11 11:53:32;;;;;;;;;;;;;;;32.25;21.59;99699.13;5090856;28;19912;-77
2023/09/11 11:55:58;;;;;;;;;;;;;;;32.17;20.49;99696.00;5092148;28;20444;-77
2023/09/11 11:58:24;;;;;;;;;;;;;;;32.15;20.21;99697.47;5092819;28;19988;-76
2023/09/11 12:01:00;;;;;;;;;;;;;;;32.00;20.64;99693.25;5092377;28;19935;-77
2023/09/11 12:03:29;;;;;;;;;;;;;;;31.98;21.59;99692.75;5074751;28;19927;-75
2023/09/11 12:05:55;;;;;;;;;;;;;;;32.00;23.04;99690.50;5093100;28;20392;-77
2023/09/11 12:08:21;;;;;;;;;;;;;;;31.88;22.67;99685.63;5093127;28;20312;-78
2023/09/11 12:10:49;;;;;;;;;;;;;;;31.75;22.34;99683.00;5074242;28;20477;-76
2023/09/11 12:13:25;;;;;;;;;;;;;;;31.55;22.17;99671.47;5092955;28;19919;-78
2023/09/11 12:15:54;;;;;;;;;;;;;;;31.45;22.72;99674.47;5083578;28;19969;-76
2023/09/11 12:18:21;;;;;;;;;;;;;;;31.36;23.46;99670.91;5092740;28;19912;-78
2023/09/11 12:20:51;;;;;;;;;;;;;;;31.21;23.30;99674.00;5091496;28;20424;-77
2023/09/11 12:23:16;;;;;;;;;;;;;;;31.01;23.26;99661.63;5075514;28;19924;-76
2023/09/11 12:25:41;;;;;;;;;;;;;;;30.88;23.93;99667.97;5089812;28;19916;-76
2023/09/11 12:28:07;;;;;;;;;;;;;;;30.78;23.54;99660.03;5060072;28;19921;-76
2023/09/11 12:30:32;;;;;;;;;;;;;;;30.63;23.54;99662.00;5090546;28;19958;-77
2023/09/11 12:32:57;;;;;;;;;;;;;;;30.60;23.62;99659.88;5092287;28;19912;-76
2023/09/11 12:35:32;;;;;;;;;;;;;;;30.58;23.51;99661.28;5073397;28;20360;-76
2023/09/11 12:37:58;;;;;;;;;;;;;;;30.51;24.45;99656.25;5092346;28;20376;-76
2023/09/11 12:40:23;;;;;;;;;;;;;;;30.42;24.87;99659.97;5092122;28;19944;-75
2023/09/11 12:42:48;;;;;;;;;;;;;;;30.44;25.01;99655.81;5091694;28;19923;-77
2023/09/11 12:45:16;;;;;;;;;;;;;;;30.40;23.58;99643.94;5091788;28;19923;-78